KBLF/BLF METAR and TAF weather

Enter ICAO airport designator
Station Type Date Time Source
KBLF METAR 2019/02/23 22:52 UTC NOAA

KBLF 232252Z AUTO VRB06KT 10SM -RA FEW075 BKN100 07/04 A2999 RMK AO2 RAB50 SLP159 P0000 T00670044


Station Type Date Time Source
KBLF Decoded METAR 2019/02/23 22:52 UTC NOAA

BLUEFIELD MERCER COUNTY AIRPORT , WV, United States (KBLF) 37-18N 081-12W 873M
Feb 23, 2019 - 05:52 PM EST / 2019.02.23 2252 UTC
Wind: Variable at 7 MPH (6 KT):0
Visibility: 10 mile(s):0
Sky conditions: mostly cloudy
Weather: light rain
Precipitation last hour: A trace
Temperature: 44.1 F (6.7 C)
Dew Point: 39.9 F (4.4 C)
Relative Humidity: 85%
Pressure (altimeter): 29.99 in. Hg (1015 hPa)
ob: KBLF 232252Z AUTO VRB06KT 10SM -RA FEW075 BKN100 07/04 A2999 RMK AO2 RAB50 SLP159 P0000 T00670044
cycle: 23

Station Type Date Time Source
KBLF TAF 2019/02/23 22:12 UTC NOAA

TAF
AMD KBLF 232210Z 2322/2418 16008G18KT P6SM SCT015 OVC040
FM240000 15008KT 6SM -SHRA OVC025
FM240300 15008KT 3SM SHRA OVC015 WS020/22035KT
FM241000 21012KT 6SM -SHRA OVC025 WS020/22050KT
FM241300 25015G25KT P6SM BKN040
FM241700 27018G36KT P6SM BKN050


Example: see airport list